createdAt,value
2023-02-05T00:01:43.313Z,7.05
2023-02-05T00:04:10.660Z,7.65
2023-02-05T00:06:38.399Z,11.45
2023-02-05T00:09:07.799Z,8.77
2023-02-05T00:11:34.861Z,9.18
2023-02-05T00:14:02.243Z,8.63
2023-02-05T00:16:29.731Z,13.68
2023-02-05T00:18:57.537Z,11.52
2023-02-05T00:21:24.911Z,10.82
2023-02-05T00:23:52.608Z,8.38
2023-02-05T00:26:20.014Z,9.70
2023-02-05T00:28:47.761Z,9.35
2023-02-05T00:31:17.908Z,11.30
2023-02-05T00:33:46.372Z,15.00
2023-02-05T00:36:14.329Z,11.90
2023-02-05T00:38:43.142Z,10.05
2023-02-05T00:41:11.307Z,10.05
2023-02-05T00:43:39.316Z,10.90
2023-02-05T00:46:06.974Z,9.32
2023-02-05T00:48:34.405Z,8.32
2023-02-05T00:51:01.743Z,11.15
2023-02-05T00:53:29.140Z,9.25
2023-02-05T00:55:56.155Z,9.15
2023-02-05T00:58:23.719Z,8.90
2023-02-05T01:00:51.602Z,8.65
2023-02-05T01:03:20.045Z,5.90
2023-02-05T01:05:48.272Z,7.63
2023-02-05T01:08:15.682Z,8.00
2023-02-05T01:10:48.525Z,9.23
2023-02-05T01:13:17.950Z,7.45
2023-02-05T01:15:45.706Z,6.20
2023-02-05T01:18:13.291Z,10.80
2023-02-05T01:20:42.015Z,6.35
2023-02-05T01:23:09.367Z,6.82
2023-02-05T01:25:36.897Z,7.05
2023-02-05T01:28:04.567Z,5.22
2023-02-05T01:30:31.853Z,6.88
2023-02-05T01:32:58.878Z,4.40
2023-02-05T01:35:25.943Z,4.30
2023-02-05T01:37:53.280Z,7.60
2023-02-05T01:40:20.980Z,5.10
2023-02-05T01:42:48.509Z,7.10
2023-02-05T01:45:32.855Z,8.93
2023-02-05T01:48:02.444Z,6.93
2023-02-05T01:50:57.366Z,4.10
2023-02-05T01:53:31.645Z,4.80
2023-02-05T01:56:03.543Z,3.45
2023-02-05T01:58:35.995Z,6.25
2023-02-05T02:01:03.387Z,3.55
2023-02-05T02:03:31.985Z,4.65
2023-02-05T02:05:59.432Z,5.60
2023-02-05T02:08:26.721Z,4.90
2023-02-05T02:10:55.488Z,8.88
2023-02-05T02:13:23.331Z,8.60
2023-02-05T02:15:51.374Z,8.65
2023-02-05T02:18:28.685Z,3.67
2023-02-05T02:21:04.752Z,8.90
2023-02-05T02:24:13.840Z,6.10
2023-02-05T02:27:00.709Z,4.57
2023-02-05T02:29:39.107Z,5.17
2023-02-05T02:32:16.832Z,7.90
2023-02-05T02:34:55.581Z,4.55
2023-02-05T02:37:27.319Z,7.57
2023-02-05T02:40:05.391Z,3.83
2023-02-05T02:42:49.525Z,4.57
2023-02-05T02:45:21.597Z,5.50
2023-02-05T02:47:53.530Z,4.25
2023-02-05T02:50:26.531Z,5.88
2023-02-05T02:52:56.011Z,7.30
2023-02-05T02:55:24.659Z,4.65
2023-02-05T02:57:54.324Z,3.22
2023-02-05T03:00:26.986Z,3.37
2023-02-05T03:03:01.494Z,2.70
2023-02-05T03:05:29.850Z,7.65
2023-02-05T03:08:02.806Z,5.13
2023-02-05T03:10:46.805Z,3.80
2023-02-05T03:13:15.546Z,3.45
2023-02-05T03:15:48.880Z,6.30
2023-02-05T03:18:17.658Z,5.95
2023-02-05T03:20:50.843Z,4.13
2023-02-05T03:23:18.684Z,4.82
2023-02-05T03:25:45.904Z,4.90
2023-02-05T03:28:15.244Z,7.57
2023-02-05T03:31:12.555Z,7.25
2023-02-05T03:33:55.851Z,3.60
2023-02-05T03:36:45.311Z,7.40
2023-02-05T03:39:27.833Z,5.22
2023-02-05T03:42:19.246Z,4.20
2023-02-05T03:44:47.195Z,5.30
2023-02-05T03:47:56.977Z,4.53
2023-02-05T03:50:48.194Z,5.50
2023-02-05T03:53:23.835Z,6.57
2023-02-05T03:56:17.920Z,5.00
2023-02-05T03:58:54.895Z,5.90
2023-02-05T04:01:23.128Z,4.55
2023-02-05T04:03:51.114Z,5.13
2023-02-05T04:06:19.204Z,2.90
2023-02-05T04:08:49.048Z,5.90
2023-02-05T04:11:17.157Z,3.97
2023-02-05T04:13:46.043Z,6.75
2023-02-05T04:16:13.188Z,5.32
2023-02-05T04:18:40.583Z,4.47
2023-02-05T04:21:07.782Z,3.97
2023-02-05T04:23:38.687Z,6.15
2023-02-05T04:26:06.228Z,5.72
2023-02-05T04:28:39.608Z,2.50
2023-02-05T04:31:09.567Z,4.40
2023-02-05T04:33:38.447Z,2.63
2023-02-05T04:36:06.007Z,4.10
2023-02-05T04:38:33.695Z,3.20
2023-02-05T04:41:01.009Z,4.20
2023-02-05T04:43:28.349Z,3.72
2023-02-05T04:45:55.700Z,1.90
2023-02-05T04:48:23.331Z,3.08
2023-02-05T04:50:50.241Z,5.45
2023-02-05T04:53:17.180Z,2.55
2023-02-05T04:55:44.466Z,3.10
2023-02-05T04:58:11.828Z,3.90
2023-02-05T05:00:39.154Z,3.97
2023-02-05T05:03:06.616Z,3.28
2023-02-05T05:05:36.423Z,4.65
2023-02-05T05:08:03.499Z,5.45
2023-02-05T05:10:30.908Z,3.92
2023-02-05T05:12:58.227Z,5.63
2023-02-05T05:15:25.652Z,3.42
2023-02-05T05:17:52.998Z,3.15
2023-02-05T05:20:20.341Z,5.38
2023-02-05T05:22:47.682Z,2.78
2023-02-05T05:25:14.695Z,5.53
2023-02-05T05:27:41.601Z,4.63
2023-02-05T05:30:09.202Z,5.13
2023-02-05T05:32:36.213Z,4.57
2023-02-05T05:35:03.946Z,4.63
2023-02-05T05:37:31.302Z,7.55
2023-02-05T05:40:17.060Z,5.10
2023-02-05T05:43:02.401Z,4.20
2023-02-05T05:45:29.540Z,4.32
2023-02-05T05:47:56.476Z,3.97
2023-02-05T05:50:23.766Z,3.40
2023-02-05T05:52:51.199Z,4.95
2023-02-05T05:55:18.496Z,8.13
2023-02-05T05:57:45.786Z,5.15
2023-02-05T06:00:13.371Z,3.22
2023-02-05T06:02:41.624Z,6.43
2023-02-05T06:05:08.791Z,2.50
2023-02-05T06:07:36.103Z,5.93
2023-02-05T06:10:03.194Z,3.53
2023-02-05T06:12:30.578Z,4.93
2023-02-05T06:14:57.505Z,4.60
2023-02-05T06:17:24.453Z,6.00
2023-02-05T06:19:51.338Z,3.78
2023-02-05T06:22:18.277Z,4.07
2023-02-05T06:24:45.167Z,3.05
2023-02-05T06:27:12.061Z,4.13
2023-02-05T06:29:38.965Z,4.72
2023-02-05T06:32:06.046Z,4.20
2023-02-05T06:34:33.466Z,2.33
2023-02-05T06:37:00.878Z,3.05
2023-02-05T06:39:27.920Z,6.50
2023-02-05T06:41:54.917Z,5.80
2023-02-05T06:44:21.870Z,2.60
2023-02-05T06:46:49.226Z,3.22
2023-02-05T06:49:16.553Z,5.38
2023-02-05T06:51:43.989Z,4.63
2023-02-05T06:54:10.942Z,4.47
2023-02-05T06:56:38.889Z,6.70
2023-02-05T06:59:06.197Z,3.70
2023-02-05T07:01:33.260Z,3.58
2023-02-05T07:04:01.561Z,6.82
2023-02-05T07:06:29.199Z,3.78
2023-02-05T07:08:56.652Z,4.43
2023-02-05T07:11:24.196Z,4.25
2023-02-05T07:13:51.153Z,3.58
2023-02-05T07:16:18.798Z,2.67
2023-02-05T07:18:46.021Z,3.40
2023-02-05T07:21:16.848Z,4.05
2023-02-05T07:23:43.908Z,3.25
2023-02-05T07:26:13.721Z,3.95
2023-02-05T07:28:42.152Z,2.92
2023-02-05T07:31:11.893Z,3.47
2023-02-05T07:33:46.001Z,3.92
2023-02-05T07:36:16.395Z,3.97
2023-02-05T07:38:45.329Z,5.63
2023-02-05T07:41:13.958Z,5.68
2023-02-05T07:43:41.469Z,4.43
2023-02-05T07:46:14.138Z,3.33
2023-02-05T07:48:41.599Z,6.78
2023-02-05T07:51:09.148Z,7.30
2023-02-05T07:53:36.748Z,4.72
2023-02-05T07:56:04.946Z,5.78
2023-02-05T07:58:32.483Z,5.60
2023-02-05T08:01:15.255Z,6.75
2023-02-05T08:03:42.621Z,4.05
2023-02-05T08:06:14.054Z,5.55
2023-02-05T08:08:41.580Z,7.28
2023-02-05T08:11:09.241Z,6.55
2023-02-05T08:13:37.011Z,6.53
2023-02-05T08:16:07.580Z,5.82
2023-02-05T08:18:37.521Z,4.30
2023-02-05T08:21:05.181Z,5.60
2023-02-05T08:23:41.388Z,5.57
2023-02-05T08:26:08.880Z,7.72
2023-02-05T08:28:36.306Z,4.68
2023-02-05T08:31:14.303Z,4.80
2023-02-05T08:33:41.748Z,3.72
2023-02-05T08:36:09.480Z,4.00
2023-02-05T08:38:37.061Z,9.23
2023-02-05T08:41:12.551Z,8.70
2023-02-05T08:43:45.737Z,5.05
2023-02-05T08:46:40.193Z,7.13
2023-02-05T08:49:30.796Z,7.25
2023-02-05T08:52:01.057Z,3.50
2023-02-05T08:54:28.117Z,6.90
2023-02-05T08:56:55.670Z,11.25
2023-02-05T08:59:23.385Z,5.70
2023-02-05T09:01:50.698Z,4.63
2023-02-05T09:04:20.553Z,5.57
2023-02-05T09:06:47.973Z,3.35
2023-02-05T09:09:15.630Z,3.22
2023-02-05T09:11:42.902Z,6.65
2023-02-05T09:14:10.341Z,6.70
2023-02-05T09:16:37.470Z,4.85
2023-02-05T09:19:04.944Z,3.80
2023-02-05T09:21:32.036Z,5.00
2023-02-05T09:23:59.491Z,5.25
2023-02-05T09:26:27.032Z,6.18
2023-02-05T09:28:54.179Z,4.72
2023-02-05T09:31:23.192Z,4.72
2023-02-05T09:33:53.370Z,5.25
2023-02-05T09:36:26.500Z,20.50
2023-02-05T09:39:05.000Z,4.07
2023-02-05T09:42:00.678Z,5.53
2023-02-05T09:44:48.685Z,6.93
2023-02-05T09:47:38.244Z,6.78
2023-02-05T09:50:16.240Z,4.90
2023-02-05T09:52:47.950Z,7.10
2023-02-05T09:55:21.218Z,4.68
2023-02-05T09:57:49.796Z,4.85
2023-02-05T10:00:33.326Z,3.30
2023-02-05T10:03:37.237Z,7.60
2023-02-05T10:06:05.054Z,4.88
2023-02-05T10:09:04.891Z,10.10
2023-02-05T10:11:42.134Z,11.68
2023-02-05T10:14:27.613Z,4.35
2023-02-05T10:17:29.430Z,6.93
2023-02-05T10:20:07.476Z,6.47
2023-02-05T10:23:01.952Z,8.27
2023-02-05T10:25:52.197Z,9.07
2023-02-05T10:28:56.607Z,6.25
2023-02-05T10:31:47.804Z,8.00
2023-02-05T10:34:22.035Z,4.32
2023-02-05T10:36:54.236Z,6.93
2023-02-05T10:39:26.150Z,7.40
2023-02-05T10:42:01.765Z,7.32
2023-02-05T10:44:59.899Z,5.40
2023-02-05T10:47:53.460Z,4.80
2023-02-05T10:50:52.077Z,5.60
2023-02-05T10:53:25.026Z,6.05
2023-02-05T10:55:52.714Z,10.07
2023-02-05T10:58:48.405Z,5.50
2023-02-05T11:01:26.391Z,6.45
2023-02-05T11:04:05.077Z,7.53
2023-02-05T11:06:38.266Z,7.72
2023-02-05T11:09:25.499Z,8.38
2023-02-05T11:12:02.252Z,6.25
2023-02-05T11:14:36.664Z,5.65
2023-02-05T11:17:29.045Z,9.02
2023-02-05T11:20:00.252Z,6.43
2023-02-05T11:22:32.265Z,7.43
2023-02-05T11:25:16.366Z,10.05
2023-02-05T11:27:57.773Z,10.57
2023-02-05T11:30:50.074Z,4.60
2023-02-05T11:33:27.085Z,5.63
2023-02-05T11:35:58.323Z,9.32
2023-02-05T11:38:35.982Z,9.18
2023-02-05T11:41:07.484Z,9.80
2023-02-05T11:43:34.889Z,6.35
2023-02-05T11:46:05.245Z,6.85
2023-02-05T11:51:07.728Z,7.97
2023-02-05T11:53:39.036Z,8.10
2023-02-05T11:56:13.420Z,9.80
2023-02-05T11:58:40.875Z,7.53
2023-02-05T12:01:33.966Z,7.63
2023-02-05T12:04:04.113Z,6.70
2023-02-05T12:06:37.421Z,11.05
2023-02-05T12:09:05.112Z,8.20
2023-02-05T12:12:03.796Z,9.43
2023-02-05T12:15:11.581Z,13.80
2023-02-05T12:17:51.740Z,13.60
2023-02-05T12:20:29.319Z,10.20
2023-02-05T12:23:46.895Z,11.38
2023-02-05T12:26:14.260Z,8.13
2023-02-05T12:28:59.290Z,10.15
2023-02-05T12:31:51.446Z,9.73
2023-02-05T12:34:21.356Z,12.32
2023-02-05T12:37:22.109Z,10.27
2023-02-05T12:40:01.517Z,11.85
2023-02-05T12:42:33.147Z,10.13
2023-02-05T12:45:23.934Z,8.32
2023-02-05T12:48:33.439Z,11.65
2023-02-05T12:51:27.662Z,10.00
2023-02-05T12:54:34.554Z,8.20
2023-02-05T12:57:08.216Z,9.02
2023-02-05T12:59:59.160Z,8.32
2023-02-05T13:02:36.128Z,7.68
2023-02-05T13:06:05.774Z,12.80
2023-02-05T13:08:33.090Z,10.98
2023-02-05T13:11:09.256Z,8.68
2023-02-05T13:13:58.697Z,7.00
2023-02-05T13:16:44.111Z,8.30
2023-02-05T13:19:54.240Z,9.35
2023-02-05T13:22:56.911Z,8.18
2023-02-05T13:25:51.633Z,8.70
2023-02-05T13:28:43.008Z,9.40
2023-02-05T13:31:50.383Z,6.45
2023-02-05T13:34:22.931Z,11.80
2023-02-05T13:37:13.551Z,7.20
2023-02-05T13:40:22.004Z,7.55
2023-02-05T13:43:32.046Z,6.65
2023-02-05T13:46:04.870Z,9.82
2023-02-05T13:48:53.291Z,11.73
2023-02-05T13:51:55.748Z,9.60
2023-02-05T13:54:37.932Z,10.02
2023-02-05T13:57:41.665Z,6.80
2023-02-05T14:00:14.527Z,9.23
2023-02-05T14:02:42.992Z,7.25
2023-02-05T14:05:14.719Z,10.45
2023-02-05T14:07:49.132Z,10.20
2023-02-05T14:10:31.464Z,14.20
2023-02-05T14:13:12.463Z,9.77
2023-02-05T14:15:44.749Z,11.07
2023-02-05T14:18:32.820Z,11.07
2023-02-05T14:20:59.790Z,9.73
2023-02-05T14:23:49.143Z,18.52
2023-02-05T14:26:16.976Z,21.30
2023-02-05T14:28:56.398Z,15.70
2023-02-05T14:31:49.779Z,17.63
2023-02-05T14:34:31.930Z,16.48
2023-02-05T14:36:59.664Z,16.85
2023-02-05T14:39:32.804Z,14.55
2023-02-05T14:42:05.459Z,14.43
2023-02-05T14:44:40.782Z,14.45
2023-02-05T14:47:27.117Z,16.65
2023-02-05T14:50:14.267Z,15.98
2023-02-05T14:52:49.651Z,20.40
2023-02-05T14:55:32.610Z,23.30
2023-02-05T14:58:06.030Z,17.70
2023-02-05T15:00:37.890Z,18.23
2023-02-05T15:03:15.464Z,20.38
2023-02-05T15:05:45.674Z,23.20
2023-02-05T15:08:27.681Z,27.17
2023-02-05T15:11:11.113Z,21.65
2023-02-05T15:13:38.777Z,22.00
2023-02-05T15:16:14.847Z,24.85
2023-02-05T15:18:45.844Z,18.77
2023-02-05T15:21:23.405Z,18.77
2023-02-05T15:24:13.738Z,24.35
2023-02-05T15:29:30.490Z,24.90
2023-02-05T15:32:07.157Z,17.75
2023-02-05T15:34:49.832Z,17.95
2023-02-05T15:37:37.433Z,28.80
2023-02-05T15:40:18.423Z,23.60
2023-02-05T15:42:48.735Z,17.08
2023-02-05T15:47:45.438Z,18.48
2023-02-05T15:50:15.828Z,20.73
2023-02-05T15:52:42.879Z,21.65
2023-02-05T15:55:24.547Z,15.30
2023-02-05T15:57:52.309Z,24.73
2023-02-05T16:00:29.497Z,19.63
2023-02-05T16:03:01.888Z,15.18
2023-02-05T16:05:31.947Z,25.25
2023-02-05T16:08:01.910Z,19.25
2023-02-05T16:13:14.278Z,25.17
2023-02-05T16:16:00.590Z,22.38
2023-02-05T16:18:42.642Z,24.08
2023-02-05T16:21:33.024Z,23.02
2023-02-05T16:26:46.611Z,23.80
2023-02-05T16:29:28.105Z,19.00
2023-02-05T16:32:09.439Z,26.35
2023-02-05T16:34:44.889Z,17.45
2023-02-05T16:37:18.439Z,22.95
2023-02-05T16:39:54.871Z,18.85
2023-02-05T16:42:59.172Z,21.23
2023-02-05T16:45:31.646Z,18.95
2023-02-05T16:48:22.069Z,23.77
2023-02-05T16:53:38.620Z,18.17
2023-02-05T16:56:29.763Z,19.70
2023-02-05T16:59:41.732Z,19.73
2023-02-05T17:02:42.220Z,18.20
2023-02-05T17:05:43.061Z,15.80
2023-02-05T17:08:28.178Z,19.02
2023-02-05T17:11:34.685Z,14.50
2023-02-05T17:14:54.188Z,21.40
2023-02-05T17:18:44.329Z,17.77
2023-02-05T17:21:40.225Z,20.45
2023-02-05T17:27:14.659Z,24.90
2023-02-05T17:29:52.519Z,22.15
2023-02-05T17:32:44.098Z,17.50
2023-02-05T17:35:19.617Z,17.52
2023-02-05T17:37:52.608Z,22.92
2023-02-05T17:40:24.127Z,19.30
2023-02-05T17:43:09.241Z,21.70
2023-02-05T17:45:43.105Z,17.60
2023-02-05T17:48:18.534Z,18.73
2023-02-05T17:50:51.694Z,16.98
2023-02-05T17:53:53.249Z,17.65
2023-02-05T17:56:23.761Z,13.48
2023-02-05T18:02:01.059Z,18.73
2023-02-05T18:04:47.616Z,17.02
2023-02-05T18:07:23.394Z,20.15
2023-02-05T18:09:58.873Z,18.58
2023-02-05T18:15:41.117Z,20.67
2023-02-05T18:18:27.168Z,22.02
2023-02-05T18:21:04.135Z,23.67
2023-02-05T18:23:38.969Z,21.17
2023-02-05T18:26:19.432Z,23.20
2023-02-05T18:28:51.056Z,20.52
2023-02-05T18:31:18.946Z,20.13
2023-02-05T18:33:46.481Z,22.40
2023-02-05T18:36:15.410Z,21.70
2023-02-05T18:38:45.700Z,20.55
2023-02-05T18:41:13.391Z,17.65
2023-02-05T18:43:44.112Z,17.35
2023-02-05T18:46:13.372Z,23.08
2023-02-05T18:48:41.223Z,19.08
2023-02-05T18:51:09.754Z,19.27
2023-02-05T18:53:39.022Z,18.27
2023-02-05T18:56:14.688Z,22.77
2023-02-05T18:58:42.706Z,20.77
2023-02-05T19:01:10.207Z,20.25
2023-02-05T19:03:38.161Z,20.13
2023-02-05T19:06:06.012Z,19.33
2023-02-05T19:08:33.453Z,21.70
2023-02-05T19:11:00.824Z,17.35
2023-02-05T19:13:28.412Z,17.70
2023-02-05T19:15:55.763Z,19.63
2023-02-05T19:18:25.637Z,21.25
2023-02-05T19:20:52.937Z,19.88
2023-02-05T19:23:20.584Z,16.60
2023-02-05T19:25:48.096Z,15.05
2023-02-05T19:28:19.103Z,17.90
2023-02-05T19:30:46.732Z,20.38
2023-02-05T19:33:14.184Z,21.63
2023-02-05T19:35:41.630Z,17.58
2023-02-05T19:38:11.759Z,21.42
2023-02-05T19:40:38.924Z,18.30
2023-02-05T19:43:07.221Z,20.85
2023-02-05T19:45:39.509Z,27.02
2023-02-05T19:48:06.972Z,20.27
2023-02-05T19:50:35.442Z,19.63
2023-02-05T19:53:02.727Z,19.48
2023-02-05T19:55:30.224Z,21.75
2023-02-05T19:57:57.587Z,22.00
2023-02-05T20:00:43.735Z,18.65
2023-02-05T20:03:15.844Z,17.52
2023-02-05T20:05:48.707Z,18.45
2023-02-05T20:08:16.031Z,21.48
2023-02-05T20:10:43.276Z,19.67
2023-02-05T20:13:11.139Z,18.05
2023-02-05T20:15:39.829Z,18.83
2023-02-05T20:18:08.668Z,20.92
2023-02-05T20:20:53.630Z,19.98
2023-02-05T20:23:21.271Z,19.30
2023-02-05T20:26:01.205Z,23.27
2023-02-05T20:28:28.372Z,16.95
2023-02-05T20:31:14.592Z,17.63
2023-02-05T20:33:43.302Z,28.45
2023-02-05T20:36:12.472Z,20.38
2023-02-05T20:38:41.488Z,19.30
2023-02-05T20:41:16.911Z,25.73
2023-02-05T20:43:44.991Z,17.90
2023-02-05T20:46:16.937Z,21.13
2023-02-05T20:48:46.018Z,23.90
2023-02-05T20:51:16.027Z,25.35
2023-02-05T20:53:43.520Z,21.33
2023-02-05T20:56:19.527Z,19.77
2023-02-05T20:58:48.006Z,19.20
2023-02-05T21:01:18.894Z,24.77
2023-02-05T21:03:48.603Z,22.02
2023-02-05T21:06:16.488Z,21.75
2023-02-05T21:08:46.112Z,19.48
2023-02-05T21:11:15.544Z,22.70
2023-02-05T21:13:44.021Z,24.08
2023-02-05T21:16:12.360Z,28.92
2023-02-05T21:18:40.457Z,23.60
2023-02-05T21:21:14.189Z,24.90
2023-02-05T21:23:42.242Z,20.30
2023-02-05T21:26:16.916Z,27.58
2023-02-05T21:28:43.862Z,23.02
2023-02-05T21:31:10.884Z,24.40
2023-02-05T21:33:38.282Z,22.92
2023-02-05T21:36:07.589Z,20.80
2023-02-05T21:38:36.096Z,27.25
2023-02-05T21:41:35.975Z,23.02
2023-02-05T21:44:06.515Z,24.38
2023-02-05T21:46:33.651Z,19.88
2023-02-05T21:49:02.341Z,34.78
2023-02-05T21:51:31.883Z,25.42
2023-02-05T21:54:01.146Z,29.48
2023-02-05T21:56:34.791Z,24.25
2023-02-05T21:59:01.922Z,22.38
2023-02-05T22:01:31.894Z,21.52
2023-02-05T22:04:18.253Z,20.42
2023-02-05T22:06:45.632Z,23.80
2023-02-05T22:09:17.312Z,21.42
2023-02-05T22:12:01.533Z,25.95
2023-02-05T22:14:43.760Z,22.52
2023-02-05T22:17:10.706Z,22.73
2023-02-05T22:19:38.195Z,20.20
2023-02-05T22:22:05.560Z,21.77
2023-02-05T22:24:32.690Z,24.02
2023-02-05T22:27:00.122Z,27.88
2023-02-05T22:29:27.521Z,31.95
2023-02-05T22:31:55.028Z,23.00
2023-02-05T22:34:22.437Z,20.73
2023-02-05T22:36:49.338Z,28.50
2023-02-05T22:39:16.637Z,21.08
2023-02-05T22:41:44.408Z,20.92
2023-02-05T22:44:12.375Z,37.20
2023-02-05T22:46:42.229Z,24.15
2023-02-05T22:49:11.448Z,23.77
2023-02-05T22:51:40.419Z,28.75
2023-02-05T22:54:11.054Z,31.98
2023-02-05T22:56:38.642Z,31.60
2023-02-05T22:59:06.396Z,22.30
2023-02-05T23:01:35.481Z,23.33
2023-02-05T23:04:04.247Z,24.50
2023-02-05T23:06:36.896Z,21.70
2023-02-05T23:09:13.766Z,26.75
2023-02-05T23:11:41.149Z,27.92
2023-02-05T23:14:09.474Z,26.65
2023-02-05T23:16:39.331Z,23.38
2023-02-05T23:19:14.871Z,32.50
2023-02-05T23:21:42.198Z,29.83
2023-02-05T23:24:09.814Z,27.67
2023-02-05T23:26:43.880Z,32.42
2023-02-05T23:29:18.594Z,26.17
2023-02-05T23:31:48.858Z,25.65
2023-02-05T23:34:16.220Z,27.58
2023-02-05T23:36:43.669Z,25.80
2023-02-05T23:39:11.225Z,22.55
2023-02-05T23:41:40.037Z,22.73
2023-02-05T23:44:13.477Z,21.13
2023-02-05T23:46:44.673Z,22.58
2023-02-05T23:49:12.238Z,22.10
2023-02-05T23:51:39.883Z,27.30
2023-02-05T23:54:08.151Z,30.98
2023-02-05T23:56:35.095Z,26.55
2023-02-05T23:59:02.581Z,31.75
